createdAt,value
2023-02-11T00:00:43.467Z,15.43
2023-02-11T00:03:10.358Z,23.58
2023-02-11T00:05:37.295Z,16.17
2023-02-11T00:08:04.258Z,23.25
2023-02-11T00:10:31.164Z,17.53
2023-02-11T00:12:58.044Z,23.75
2023-02-11T00:15:25.023Z,16.15
2023-02-11T00:17:52.261Z,12.07
2023-02-11T00:20:19.166Z,20.65
2023-02-11T00:22:46.004Z,19.50
2023-02-11T00:25:12.800Z,10.23
2023-02-11T00:27:39.689Z,21.38
2023-02-11T00:30:06.942Z,17.40
2023-02-11T00:32:33.722Z,23.35
2023-02-11T00:35:00.519Z,20.73
2023-02-11T00:37:27.372Z,24.85
2023-02-11T00:39:54.204Z,23.80
2023-02-11T00:42:21.025Z,21.23
2023-02-11T00:44:47.825Z,15.48
2023-02-11T00:47:16.930Z,19.10
2023-02-11T00:49:44.272Z,22.75
2023-02-11T00:52:11.227Z,25.92
2023-02-11T00:54:38.089Z,16.52
2023-02-11T00:57:06.663Z,20.63
2023-02-11T00:59:33.426Z,20.50
2023-02-11T01:02:01.581Z,19.50
2023-02-11T01:04:28.519Z,22.45
2023-02-11T01:06:55.316Z,17.42
2023-02-11T01:09:22.264Z,19.00
2023-02-11T01:11:49.027Z,18.43
2023-02-11T01:14:16.158Z,19.70
2023-02-11T01:16:43.508Z,13.95
2023-02-11T01:19:10.560Z,20.40
2023-02-11T01:21:37.338Z,22.95
2023-02-11T01:24:04.254Z,21.27
2023-02-11T01:26:31.080Z,18.08
2023-02-11T01:29:00.076Z,16.33
2023-02-11T01:31:28.002Z,21.38
2023-02-11T01:33:54.888Z,18.38
2023-02-11T01:36:21.665Z,17.57
2023-02-11T01:38:49.939Z,14.45
2023-02-11T01:41:17.208Z,15.32
2023-02-11T01:43:47.915Z,13.13
2023-02-11T01:46:30.998Z,15.52
2023-02-11T01:49:07.306Z,16.83
2023-02-11T01:51:43.855Z,11.40
2023-02-11T01:54:31.857Z,22.00
2023-02-11T01:57:18.996Z,20.50
2023-02-11T02:00:07.085Z,14.98
2023-02-11T02:03:14.784Z,15.20
2023-02-11T02:05:46.061Z,14.98
2023-02-11T02:08:36.291Z,20.95
2023-02-11T02:11:03.832Z,22.27
2023-02-11T02:13:32.959Z,18.20
2023-02-11T02:16:07.877Z,17.47
2023-02-11T02:18:40.318Z,17.00
2023-02-11T02:21:28.852Z,21.13
2023-02-11T02:24:33.818Z,18.33
2023-02-11T02:27:27.733Z,17.10
2023-02-11T02:30:21.111Z,16.90
2023-02-11T02:33:05.811Z,22.13
2023-02-11T02:36:20.701Z,15.32
2023-02-11T02:38:59.101Z,22.40
2023-02-11T02:41:30.492Z,21.90
2023-02-11T02:43:57.855Z,28.13
2023-02-11T02:46:33.120Z,14.23
2023-02-11T02:49:00.462Z,17.63
2023-02-11T02:51:48.610Z,22.15
2023-02-11T02:54:33.927Z,15.70
2023-02-11T02:57:18.874Z,18.03
2023-02-11T02:59:51.471Z,24.25
2023-02-11T03:02:31.569Z,21.10
2023-02-11T03:05:22.906Z,20.92
2023-02-11T03:08:02.820Z,18.38
2023-02-11T03:10:34.133Z,21.53
2023-02-11T03:13:02.576Z,26.05
2023-02-11T03:15:34.017Z,25.35
2023-02-11T03:18:03.196Z,22.92
2023-02-11T03:20:34.774Z,19.02
2023-02-11T03:23:16.809Z,21.03
2023-02-11T03:25:52.940Z,21.00
2023-02-11T03:28:28.000Z,26.27
2023-02-11T03:31:10.593Z,23.17
2023-02-11T03:34:21.419Z,21.40
2023-02-11T03:36:52.966Z,19.80
2023-02-11T03:39:27.382Z,30.13
2023-02-11T03:41:56.605Z,27.80
2023-02-11T03:44:29.282Z,28.80
2023-02-11T03:46:56.468Z,19.67
2023-02-11T03:49:26.704Z,17.60
2023-02-11T03:51:54.760Z,18.42
2023-02-11T03:54:30.496Z,22.05
2023-02-11T03:57:00.130Z,25.00
2023-02-11T03:59:27.366Z,22.85
2023-02-11T04:01:54.637Z,23.17
2023-02-11T04:04:21.557Z,27.55
2023-02-11T04:06:48.286Z,24.88
2023-02-11T04:09:15.469Z,25.83
2023-02-11T04:11:42.379Z,29.58
2023-02-11T04:14:09.322Z,23.00
2023-02-11T04:16:36.125Z,28.15
2023-02-11T04:19:02.897Z,26.88
2023-02-11T04:21:29.755Z,25.35
2023-02-11T04:23:56.613Z,25.50
2023-02-11T04:26:23.550Z,25.80
2023-02-11T04:28:50.273Z,29.30
2023-02-11T04:31:17.285Z,26.83
2023-02-11T04:33:44.114Z,25.90
2023-02-11T04:36:11.130Z,25.63
2023-02-11T04:38:37.871Z,25.93
2023-02-11T04:41:04.805Z,21.83
2023-02-11T04:43:31.605Z,29.40
2023-02-11T04:45:58.907Z,26.55
2023-02-11T04:48:26.274Z,26.88
2023-02-11T04:50:53.088Z,27.50
2023-02-11T04:53:19.942Z,29.33
2023-02-11T04:55:50.436Z,30.10
2023-02-11T04:58:18.653Z,26.88
2023-02-11T05:00:45.560Z,31.20
2023-02-11T05:03:12.724Z,27.00
2023-02-11T05:05:41.354Z,25.08
2023-02-11T05:08:09.087Z,25.92
2023-02-11T05:10:36.162Z,27.58
2023-02-11T05:13:03.670Z,27.20
2023-02-11T05:15:30.700Z,27.53
2023-02-11T05:17:57.559Z,25.08
2023-02-11T05:20:24.449Z,35.33
2023-02-11T05:22:51.712Z,27.55
2023-02-11T05:25:18.623Z,29.90
2023-02-11T05:27:45.384Z,28.10
2023-02-11T05:30:12.547Z,24.85
2023-02-11T05:32:39.405Z,27.48
2023-02-11T05:35:06.450Z,31.42
2023-02-11T05:37:33.288Z,27.23
2023-02-11T05:40:00.130Z,29.50
2023-02-11T05:42:26.857Z,32.53
2023-02-11T05:44:53.708Z,29.92
2023-02-11T05:47:20.552Z,28.27
2023-02-11T05:49:47.430Z,26.30
2023-02-11T05:52:14.462Z,29.63
2023-02-11T05:54:41.369Z,35.95
2023-02-11T05:57:08.291Z,39.05
2023-02-11T05:59:35.232Z,31.67
2023-02-11T06:02:02.368Z,36.50
2023-02-11T06:04:29.364Z,36.57
2023-02-11T06:06:56.721Z,32.80
2023-02-11T06:09:24.065Z,33.03
2023-02-11T06:11:50.933Z,31.13
2023-02-11T06:14:17.695Z,31.90
2023-02-11T06:16:44.489Z,29.17
2023-02-11T06:19:12.251Z,33.92
2023-02-11T06:21:44.186Z,33.60
2023-02-11T06:24:11.694Z,31.73
2023-02-11T06:26:38.586Z,35.58
2023-02-11T06:29:05.398Z,38.13
2023-02-11T06:31:32.287Z,28.30
2023-02-11T06:33:59.377Z,34.63
2023-02-11T06:36:28.225Z,33.33
2023-02-11T06:38:55.573Z,33.53
2023-02-11T06:41:22.990Z,35.97
2023-02-11T06:43:50.091Z,30.33
2023-02-11T06:46:17.055Z,32.85
2023-02-11T06:48:45.061Z,32.85
2023-02-11T06:51:13.602Z,31.50
2023-02-11T06:53:44.152Z,30.27
2023-02-11T06:56:17.461Z,37.35
2023-02-11T06:58:44.571Z,30.17
2023-02-11T07:01:15.156Z,39.47
2023-02-11T07:03:43.965Z,35.45
2023-02-11T07:06:15.930Z,32.47
2023-02-11T07:08:43.458Z,29.95
2023-02-11T07:11:16.113Z,31.08
2023-02-11T07:13:43.762Z,35.15
2023-02-11T07:16:14.854Z,29.20
2023-02-11T07:18:42.299Z,32.27
2023-02-11T07:21:11.992Z,37.42
2023-02-11T07:23:40.936Z,32.42
2023-02-11T07:26:09.972Z,33.05
2023-02-11T07:28:38.192Z,30.90
2023-02-11T07:31:13.601Z,38.10
2023-02-11T07:33:40.557Z,33.58
2023-02-11T07:36:09.074Z,32.22
2023-02-11T07:38:36.911Z,35.35
2023-02-11T07:41:09.905Z,29.77
2023-02-11T07:43:38.085Z,37.40
2023-02-11T07:46:07.673Z,34.95
2023-02-11T07:48:34.599Z,34.72
2023-02-11T07:51:15.890Z,30.75
2023-02-11T07:53:43.402Z,38.72
2023-02-11T07:56:11.841Z,36.70
2023-02-11T07:58:39.238Z,26.05
2023-02-11T08:01:08.353Z,31.80
2023-02-11T08:03:36.568Z,33.95
2023-02-11T08:06:05.189Z,28.42
2023-02-11T08:08:32.072Z,36.83
2023-02-11T08:10:58.950Z,34.05
2023-02-11T08:13:27.063Z,37.15
2023-02-11T08:15:57.189Z,33.78
2023-02-11T08:18:24.071Z,37.15
2023-02-11T08:20:51.086Z,36.23
2023-02-11T08:23:18.064Z,37.97
2023-02-11T08:25:44.995Z,39.13
2023-02-11T08:28:11.753Z,37.13
2023-02-11T08:30:38.749Z,42.80
2023-02-11T08:33:05.574Z,50.60
2023-02-11T08:35:37.011Z,39.13
2023-02-11T08:38:03.902Z,41.15
2023-02-11T08:40:30.751Z,43.90
2023-02-11T08:42:57.472Z,38.28
2023-02-11T08:45:24.233Z,39.17
2023-02-11T08:47:51.081Z,37.55
2023-02-11T08:50:20.478Z,41.72
2023-02-11T08:52:47.297Z,41.65
2023-02-11T08:55:14.180Z,45.25
2023-02-11T08:57:40.914Z,40.77
2023-02-11T09:00:08.438Z,43.22
2023-02-11T09:02:35.629Z,39.88
2023-02-11T09:05:02.652Z,37.63
2023-02-11T09:07:30.822Z,36.33
2023-02-11T09:09:57.659Z,43.87
2023-02-11T09:12:24.469Z,35.72
2023-02-11T09:14:51.270Z,41.75
2023-02-11T09:17:18.263Z,40.20
2023-02-11T09:19:45.206Z,37.70
2023-02-11T09:22:12.007Z,44.77
2023-02-11T09:24:39.337Z,38.65
2023-02-11T09:27:06.765Z,44.67
2023-02-11T09:29:33.877Z,48.38
2023-02-11T09:32:00.848Z,40.47
2023-02-11T09:34:27.706Z,37.87
2023-02-11T09:36:54.601Z,43.45
2023-02-11T09:39:21.317Z,32.35
2023-02-11T09:42:15.072Z,42.63
2023-02-11T09:44:45.547Z,41.65
2023-02-11T09:47:15.456Z,43.13
2023-02-11T09:49:50.302Z,34.92
2023-02-11T09:52:22.950Z,36.83
2023-02-11T09:54:58.397Z,38.92
2023-02-11T09:57:36.857Z,39.63
2023-02-11T10:00:38.007Z,42.03
2023-02-11T10:03:25.075Z,32.35
2023-02-11T10:06:09.706Z,38.47
2023-02-11T10:08:51.733Z,38.80
2023-02-11T10:11:32.445Z,32.13
2023-02-11T10:14:27.424Z,37.30
2023-02-11T10:17:12.514Z,36.45
2023-02-11T10:20:03.785Z,35.78
2023-02-11T10:22:37.540Z,36.50
2023-02-11T10:25:22.885Z,34.13
2023-02-11T10:27:51.421Z,35.40
2023-02-11T10:30:36.556Z,33.72
2023-02-11T10:33:13.709Z,32.90
2023-02-11T10:35:43.889Z,34.17
2023-02-11T10:38:11.841Z,34.72
2023-02-11T10:40:39.223Z,36.63
2023-02-11T10:43:10.958Z,32.63
2023-02-11T10:45:48.746Z,34.05
2023-02-11T10:48:43.274Z,31.55
2023-02-11T10:51:14.536Z,29.80
2023-02-11T10:53:42.039Z,31.43
2023-02-11T10:56:12.579Z,31.50
2023-02-11T10:58:54.631Z,34.17
2023-02-11T11:01:24.844Z,29.95
2023-02-11T11:03:52.995Z,31.92
2023-02-11T11:06:38.065Z,34.87
2023-02-11T11:09:04.944Z,29.90
2023-02-11T11:11:33.261Z,30.27
2023-02-11T11:14:01.169Z,34.45
2023-02-11T11:16:37.850Z,31.90
2023-02-11T11:19:07.598Z,31.97
2023-02-11T11:21:49.449Z,34.75
2023-02-11T11:24:22.099Z,32.30
2023-02-11T11:26:54.856Z,29.42
2023-02-11T11:29:28.832Z,32.63
2023-02-11T11:32:00.808Z,30.37
2023-02-11T11:34:38.649Z,29.40
2023-02-11T11:37:19.520Z,31.35
2023-02-11T11:39:57.273Z,27.05
2023-02-11T11:42:28.674Z,28.98
2023-02-11T11:45:20.894Z,35.93
2023-02-11T11:48:05.334Z,31.05
2023-02-11T11:50:56.258Z,27.67
2023-02-11T11:53:40.798Z,29.17
2023-02-11T11:56:31.050Z,29.20
2023-02-11T11:59:02.271Z,30.07
2023-02-11T12:02:02.307Z,25.05
2023-02-11T12:04:47.726Z,29.10
2023-02-11T12:07:29.478Z,23.40
2023-02-11T12:10:04.607Z,24.10
2023-02-11T12:12:46.918Z,23.00
2023-02-11T12:15:25.634Z,20.95
2023-02-11T12:18:16.602Z,20.02
2023-02-11T12:21:16.527Z,21.35
2023-02-11T12:24:07.741Z,20.08
2023-02-11T12:26:56.744Z,22.53
2023-02-11T12:29:42.247Z,25.67
2023-02-11T12:32:44.256Z,23.73
2023-02-11T12:35:25.801Z,26.35
2023-02-11T12:38:10.272Z,24.48
2023-02-11T12:40:44.919Z,23.00
2023-02-11T12:43:24.822Z,24.00
2023-02-11T12:46:17.622Z,24.38
2023-02-11T12:49:11.747Z,21.50
2023-02-11T12:52:09.566Z,22.50
2023-02-11T12:54:43.257Z,25.07
2023-02-11T12:57:26.575Z,20.80
2023-02-11T12:59:58.971Z,20.63
2023-02-11T13:02:28.487Z,22.02
2023-02-11T13:05:00.194Z,20.08
2023-02-11T13:07:44.939Z,23.67
2023-02-11T13:10:15.677Z,16.35
2023-02-11T13:13:06.554Z,14.85
2023-02-11T13:15:35.878Z,14.55
2023-02-11T13:18:22.143Z,11.30
2023-02-11T13:20:57.168Z,13.27
2023-02-11T13:23:34.094Z,10.68
2023-02-11T13:26:32.004Z,10.55
2023-02-11T13:29:18.903Z,10.25
2023-02-11T13:31:57.239Z,7.38
2023-02-11T13:34:26.382Z,8.00
2023-02-11T13:36:57.727Z,9.43
2023-02-11T13:39:24.916Z,13.27
2023-02-11T13:42:02.950Z,13.98
2023-02-11T13:44:30.033Z,16.55
2023-02-11T13:47:02.205Z,17.90
2023-02-11T13:49:42.678Z,15.25
2023-02-11T13:52:27.155Z,10.40
2023-02-11T13:54:57.030Z,9.20
2023-02-11T13:57:23.995Z,12.18
2023-02-11T13:59:56.924Z,12.53
2023-02-11T14:02:46.180Z,8.77
2023-02-11T14:05:34.943Z,10.70
2023-02-11T14:08:29.896Z,6.18
2023-02-11T14:10:58.864Z,9.05
2023-02-11T14:13:33.413Z,8.73
2023-02-11T14:16:35.298Z,15.30
2023-02-11T14:19:03.726Z,8.25
2023-02-11T14:21:32.822Z,10.00
2023-02-11T14:24:20.266Z,9.50
2023-02-11T14:27:05.062Z,13.37
2023-02-11T14:29:51.039Z,13.27
2023-02-11T14:32:38.154Z,12.02
2023-02-11T14:35:22.137Z,12.50
2023-02-11T14:38:01.170Z,8.90
2023-02-11T14:41:02.071Z,10.90
2023-02-11T14:43:37.059Z,9.02
2023-02-11T14:46:04.848Z,10.15
2023-02-11T14:48:37.816Z,15.15
2023-02-11T14:51:35.242Z,11.93
2023-02-11T14:54:17.113Z,9.10
2023-02-11T14:56:44.691Z,13.05
2023-02-11T14:59:22.988Z,11.63
2023-02-11T15:01:54.368Z,11.40
2023-02-11T15:04:35.330Z,12.52
2023-02-11T15:07:08.353Z,13.23
2023-02-11T15:09:44.779Z,14.00
2023-02-11T15:12:23.698Z,10.10
2023-02-11T15:14:56.174Z,8.95
2023-02-11T15:17:27.609Z,14.27
2023-02-11T15:19:57.871Z,14.00
2023-02-11T15:22:28.011Z,9.77
2023-02-11T15:25:08.680Z,6.95
2023-02-11T15:27:40.961Z,7.88
2023-02-11T15:30:30.635Z,10.70
2023-02-11T15:33:00.318Z,10.67
2023-02-11T15:35:32.946Z,13.48
2023-02-11T15:38:00.142Z,10.75
2023-02-11T15:40:33.117Z,14.32
2023-02-11T15:43:06.053Z,13.45
2023-02-11T15:46:00.243Z,13.03
2023-02-11T15:48:42.657Z,22.60
2023-02-11T15:51:22.227Z,20.92
2023-02-11T15:54:00.245Z,38.97
2023-02-11T15:56:43.247Z,16.58
2023-02-11T15:59:19.982Z,15.03
2023-02-11T16:01:48.495Z,16.17
2023-02-11T16:04:26.468Z,18.92
2023-02-11T16:06:55.201Z,17.05
2023-02-11T16:09:24.586Z,17.15
2023-02-11T16:11:51.475Z,15.57
2023-02-11T16:14:34.688Z,15.32
2023-02-11T16:17:22.272Z,10.98
2023-02-11T16:19:51.970Z,18.52
2023-02-11T16:22:24.330Z,19.25
2023-02-11T16:24:53.602Z,15.73
2023-02-11T16:27:29.706Z,15.80
2023-02-11T16:29:58.333Z,13.38
2023-02-11T16:32:28.083Z,11.18
2023-02-11T16:34:58.063Z,22.60
2023-02-11T16:37:25.928Z,17.43
2023-02-11T16:39:56.422Z,15.43
2023-02-11T16:42:23.460Z,12.98
2023-02-11T16:44:50.362Z,13.68
2023-02-11T16:47:24.631Z,13.05
2023-02-11T16:49:51.741Z,10.77
2023-02-11T16:52:20.944Z,11.75
2023-02-11T16:54:48.352Z,18.13
2023-02-11T16:57:27.545Z,18.63
2023-02-11T16:59:56.406Z,11.50
2023-02-11T17:02:27.130Z,12.40
2023-02-11T17:04:55.583Z,17.92
2023-02-11T17:07:22.737Z,14.52
2023-02-11T17:09:51.684Z,12.52
2023-02-11T17:12:19.099Z,14.07
2023-02-11T17:14:46.040Z,29.03
2023-02-11T17:17:13.165Z,15.02
2023-02-11T17:19:40.264Z,18.17
2023-02-11T17:22:07.367Z,12.48
2023-02-11T17:24:34.211Z,14.68
2023-02-11T17:27:01.389Z,13.83
2023-02-11T17:29:28.516Z,13.05
2023-02-11T17:31:55.501Z,10.90
2023-02-11T17:34:23.013Z,10.10
2023-02-11T17:36:50.417Z,9.48
2023-02-11T17:39:17.202Z,10.97
2023-02-11T17:41:44.630Z,12.10
2023-02-11T17:44:16.284Z,16.88
2023-02-11T17:46:43.533Z,20.85
2023-02-11T17:49:12.121Z,16.65
2023-02-11T17:51:40.985Z,16.43
2023-02-11T17:54:13.140Z,18.27
2023-02-11T17:56:41.119Z,13.85
2023-02-11T17:59:10.713Z,13.43
2023-02-11T18:01:40.207Z,14.98
2023-02-11T18:04:07.709Z,15.50
2023-02-11T18:06:35.225Z,15.13
2023-02-11T18:09:04.224Z,15.98
2023-02-11T18:11:33.229Z,12.95
2023-02-11T18:14:01.277Z,16.02
2023-02-11T18:16:29.453Z,21.67
2023-02-11T18:18:57.963Z,14.43
2023-02-11T18:21:25.499Z,19.30
2023-02-11T18:23:52.690Z,14.70
2023-02-11T18:26:21.622Z,16.80
2023-02-11T18:28:48.601Z,16.50
2023-02-11T18:31:15.740Z,58.85
2023-02-11T18:33:43.018Z,44.55
2023-02-11T18:36:12.348Z,32.10
2023-02-11T18:38:39.675Z,25.10
2023-02-11T18:41:08.258Z,21.07
2023-02-11T18:43:35.102Z,17.88
2023-02-11T18:46:06.618Z,16.63
2023-02-11T18:48:33.450Z,16.55
2023-02-11T18:51:00.221Z,17.60
2023-02-11T18:53:27.204Z,16.50
2023-02-11T18:55:54.734Z,14.82
2023-02-11T18:58:22.093Z,25.33
2023-02-11T19:00:49.921Z,20.05
2023-02-11T19:03:17.103Z,16.05
2023-02-11T19:05:45.508Z,15.83
2023-02-11T19:08:13.280Z,17.92
2023-02-11T19:10:41.849Z,27.25
2023-02-11T19:13:09.193Z,23.80
2023-02-11T19:15:42.002Z,18.30
2023-02-11T19:18:09.523Z,19.10
2023-02-11T19:20:39.828Z,15.55
2023-02-11T19:23:06.699Z,16.10
2023-02-11T19:25:33.940Z,13.10
2023-02-11T19:28:01.125Z,13.55
2023-02-11T19:30:28.218Z,13.47
2023-02-11T19:32:57.168Z,13.85
2023-02-11T19:35:25.224Z,14.02
2023-02-11T19:37:52.133Z,14.55
2023-02-11T19:40:21.231Z,18.20
2023-02-11T19:42:48.515Z,18.40
2023-02-11T19:45:15.608Z,19.52
2023-02-11T19:47:42.731Z,17.58
2023-02-11T19:50:10.523Z,16.00
2023-02-11T19:52:38.736Z,17.25
2023-02-11T19:55:06.183Z,14.63
2023-02-11T19:57:32.927Z,16.20
2023-02-11T19:59:59.698Z,16.60
2023-02-11T20:02:26.720Z,18.45
2023-02-11T20:04:53.574Z,20.27
2023-02-11T20:07:20.800Z,17.43
2023-02-11T20:09:47.657Z,19.75
2023-02-11T20:12:14.381Z,22.45
2023-02-11T20:14:41.263Z,23.20
2023-02-11T20:17:08.030Z,27.05
2023-02-11T20:19:34.895Z,26.13
2023-02-11T20:22:01.606Z,23.52
2023-02-11T20:24:28.606Z,24.75
2023-02-11T20:26:56.101Z,26.13
2023-02-11T20:29:23.709Z,26.65
2023-02-11T20:31:51.041Z,25.47
2023-02-11T20:34:26.918Z,25.00
2023-02-11T20:36:54.200Z,25.35
2023-02-11T20:39:22.745Z,23.35
2023-02-11T20:41:51.021Z,24.25
2023-02-11T20:44:18.105Z,24.40
2023-02-11T20:46:48.250Z,20.35
2023-02-11T20:49:19.074Z,23.42
2023-02-11T20:51:46.747Z,20.38
2023-02-11T20:54:19.727Z,19.40
2023-02-11T20:56:48.362Z,20.83
2023-02-11T20:59:16.936Z,17.90
2023-02-11T21:01:48.313Z,20.10
2023-02-11T21:04:18.172Z,23.15
2023-02-11T21:06:50.389Z,21.88
2023-02-11T21:09:19.939Z,23.03
2023-02-11T21:11:47.870Z,19.77
2023-02-11T21:14:15.312Z,19.92
2023-02-11T21:16:42.339Z,18.38
2023-02-11T21:19:09.376Z,20.85
2023-02-11T21:21:38.320Z,22.73
2023-02-11T21:24:06.594Z,19.90
2023-02-11T21:26:35.270Z,18.33
2023-02-11T21:29:03.482Z,18.98
2023-02-11T21:31:32.308Z,17.65
2023-02-11T21:34:01.972Z,21.03
2023-02-11T21:36:29.389Z,19.15
2023-02-11T21:38:56.271Z,19.70
2023-02-11T21:41:24.676Z,20.33
2023-02-11T21:43:52.198Z,18.75
2023-02-11T21:46:20.450Z,21.77
2023-02-11T21:48:48.165Z,22.10
2023-02-11T21:51:18.068Z,20.60
2023-02-11T21:53:45.272Z,21.30
2023-02-11T21:56:14.898Z,21.33
2023-02-11T21:58:42.120Z,18.90
2023-02-11T22:01:18.370Z,22.00
2023-02-11T22:03:46.229Z,20.67
2023-02-11T22:06:15.745Z,22.00
2023-02-11T22:08:42.511Z,19.52
2023-02-11T22:11:12.213Z,18.73
2023-02-11T22:13:40.354Z,20.35
2023-02-11T22:16:10.873Z,24.60
2023-02-11T22:18:38.616Z,20.33
2023-02-11T22:21:11.220Z,21.40
2023-02-11T22:23:39.156Z,24.37
2023-02-11T22:26:12.271Z,22.35
2023-02-11T22:28:40.559Z,21.92
2023-02-11T22:31:18.411Z,22.27
2023-02-11T22:33:46.543Z,24.25
2023-02-11T22:36:17.664Z,20.10
2023-02-11T22:38:44.723Z,19.50
2023-02-11T22:41:12.207Z,20.33
2023-02-11T22:43:41.574Z,22.15
2023-02-11T22:46:08.861Z,21.20
2023-02-11T22:48:36.026Z,19.43
2023-02-11T22:51:10.810Z,23.55
2023-02-11T22:53:38.111Z,24.35
2023-02-11T22:56:14.027Z,18.75
2023-02-11T22:58:42.105Z,21.73
2023-02-11T23:01:09.283Z,21.53
2023-02-11T23:03:36.438Z,19.75
2023-02-11T23:06:03.786Z,16.90
2023-02-11T23:08:31.537Z,20.10
2023-02-11T23:11:12.939Z,21.52
2023-02-11T23:13:41.077Z,18.77
2023-02-11T23:16:11.771Z,18.20
2023-02-11T23:18:41.406Z,18.55
2023-02-11T23:21:12.926Z,19.02
2023-02-11T23:23:39.989Z,18.55
2023-02-11T23:26:10.294Z,19.77
2023-02-11T23:28:37.541Z,18.25
2023-02-11T23:31:14.646Z,19.58
2023-02-11T23:33:41.505Z,18.38
2023-02-11T23:36:08.589Z,20.40
2023-02-11T23:38:35.472Z,18.80
2023-02-11T23:41:02.285Z,18.38
2023-02-11T23:43:29.009Z,21.35
2023-02-11T23:45:56.205Z,18.88
2023-02-11T23:48:23.224Z,17.90
2023-02-11T23:50:50.038Z,20.63
2023-02-11T23:53:16.939Z,18.33
2023-02-11T23:55:45.220Z,18.40
2023-02-11T23:58:13.762Z,21.38
